createdAt,value
2022-12-01T00:03:40.245Z,-6.99
2022-12-01T00:09:06.108Z,-6.91
2022-12-01T00:14:08.641Z,-7.17
2022-12-01T00:19:19.792Z,-7.18
2022-12-01T00:24:23.789Z,-7.30
2022-12-01T00:29:26.299Z,-7.23
2022-12-01T00:34:29.040Z,-7.34
2022-12-01T00:39:31.536Z,-7.56
2022-12-01T00:44:33.896Z,-7.22
2022-12-01T00:49:36.373Z,-7.21
2022-12-01T00:54:38.642Z,-7.34
2022-12-01T00:59:42.538Z,-7.10
2022-12-01T01:04:45.084Z,-7.18
2022-12-01T01:09:47.996Z,-7.11
2022-12-01T01:14:50.775Z,-7.04
2022-12-01T01:19:53.978Z,-7.01
2022-12-01T01:24:56.417Z,-7.02
2022-12-01T01:29:58.888Z,-7.03
2022-12-01T01:35:01.411Z,-7.13
2022-12-01T01:40:06.119Z,-7.09
2022-12-01T01:45:22.508Z,-7.08
2022-12-01T01:50:28.666Z,-6.91
2022-12-01T01:55:34.014Z,-6.86
2022-12-01T02:00:38.420Z,-6.90
2022-12-01T02:05:43.379Z,-6.95
2022-12-01T02:11:05.208Z,-7.05
2022-12-01T02:16:27.352Z,-7.11
2022-12-01T02:22:01.784Z,-6.96
2022-12-01T02:27:22.198Z,-7.04
2022-12-01T02:32:47.635Z,-7.04
2022-12-01T02:38:06.994Z,-7.03
2022-12-01T02:43:44.028Z,-7.07
2022-12-01T02:48:50.690Z,-7.20
2022-12-01T02:53:55.287Z,-7.15
2022-12-01T02:58:57.783Z,-7.22
2022-12-01T03:04:03.348Z,-7.18
2022-12-01T03:09:20.839Z,-7.17
2022-12-01T03:14:47.896Z,-7.21
2022-12-01T03:20:08.995Z,-7.23
2022-12-01T03:25:14.166Z,-7.15
2022-12-01T03:30:17.537Z,-7.32
2022-12-01T03:35:54.625Z,-7.19
2022-12-01T03:41:02.399Z,-7.25
2022-12-01T03:46:10.972Z,-7.28
2022-12-01T03:51:20.084Z,-7.37
2022-12-01T03:56:26.903Z,-7.34
2022-12-01T04:01:34.128Z,-7.28
2022-12-01T04:06:36.957Z,-7.26
2022-12-01T04:11:58.067Z,-7.29
2022-12-01T04:17:00.511Z,-7.42
2022-12-01T04:22:03.913Z,-7.41
2022-12-01T04:27:06.499Z,-7.53
2022-12-01T04:32:09.143Z,-7.59
2022-12-01T04:37:12.459Z,-7.49
2022-12-01T04:42:14.945Z,-7.54
2022-12-01T04:47:17.467Z,-7.59
2022-12-01T04:52:19.911Z,-7.46
2022-12-01T04:57:22.441Z,-7.46
2022-12-01T05:02:25.069Z,-7.42
2022-12-01T05:07:27.612Z,-7.51
2022-12-01T05:12:30.219Z,-7.79
2022-12-01T05:17:36.735Z,-7.62
2022-12-01T05:23:04.236Z,-7.54
2022-12-01T05:28:02.056Z,-7.38
2022-12-01T05:33:04.454Z,-7.25
2022-12-01T05:38:08.277Z,-7.23
2022-12-01T05:43:10.901Z,-7.12
2022-12-01T05:48:13.405Z,-6.88
2022-12-01T05:53:16.269Z,-6.87
2022-12-01T05:58:18.796Z,-6.64
2022-12-01T06:03:21.382Z,-6.44
2022-12-01T06:08:23.957Z,-6.26
2022-12-01T06:13:26.528Z,-6.12
2022-12-01T06:18:32.168Z,-6.04
2022-12-01T06:23:34.957Z,-5.98
2022-12-01T06:28:37.427Z,-5.75
2022-12-01T06:33:39.932Z,-5.77
2022-12-01T06:38:42.519Z,-5.55
2022-12-01T06:43:45.025Z,-5.45
2022-12-01T06:48:50.781Z,-5.09
2022-12-01T06:53:59.731Z,-4.96
2022-12-01T06:59:04.808Z,-4.75
2022-12-01T07:04:07.682Z,-4.73
2022-12-01T07:09:10.384Z,-4.47
2022-12-01T07:14:33.109Z,-4.36
2022-12-01T07:19:36.359Z,-4.40
2022-12-01T07:24:38.886Z,-4.18
2022-12-01T07:29:41.522Z,-4.17
2022-12-01T07:34:43.987Z,-3.94
2022-12-01T07:39:46.742Z,-3.91
2022-12-01T07:44:49.451Z,-3.68
2022-12-01T07:49:52.055Z,-3.66
2022-12-01T07:55:11.875Z,-3.46
2022-12-01T08:00:15.406Z,-3.55
2022-12-01T08:05:17.981Z,-3.22
2022-12-01T08:10:20.558Z,-3.25
2022-12-01T08:15:23.171Z,-2.77
2022-12-01T08:20:25.876Z,-2.68
2022-12-01T08:25:31.297Z,-2.54
2022-12-01T08:30:33.780Z,-2.34
2022-12-01T08:35:37.464Z,-2.15
2022-12-01T08:41:02.792Z,-2.21
2022-12-01T08:46:07.028Z,-1.95
2022-12-01T08:51:15.795Z,-1.70
2022-12-01T08:56:39.269Z,-1.66
2022-12-01T09:01:53.821Z,-1.58
2022-12-01T09:06:57.507Z,-1.83
2022-12-01T09:11:59.996Z,-1.48
2022-12-01T09:17:02.486Z,-1.52
2022-12-01T09:22:04.983Z,-1.46
2022-12-01T09:27:07.484Z,-1.22
2022-12-01T09:32:10.018Z,-1.35
2022-12-01T09:37:12.627Z,-1.30
2022-12-01T09:42:18.916Z,-1.12
2022-12-01T09:47:24.241Z,-1.19
2022-12-01T09:52:29.549Z,-0.97
2022-12-01T09:57:35.624Z,-0.85
2022-12-01T10:03:03.582Z,-0.62
2022-12-01T10:08:12.494Z,-0.69
2022-12-01T10:13:21.291Z,-0.43
2022-12-01T10:18:53.105Z,-0.18
2022-12-01T10:24:23.369Z,-0.23
2022-12-01T10:30:08.608Z,-0.37
2022-12-01T10:35:19.218Z,-0.13
2022-12-01T10:40:21.874Z,-0.38
2022-12-01T10:45:27.745Z,-0.18
2022-12-01T10:50:30.692Z,-0.39
2022-12-01T10:55:40.884Z,-0.59
2022-12-01T11:01:00.265Z,-0.23
2022-12-01T11:06:07.128Z,-0.47
2022-12-01T11:11:29.416Z,-0.30
2022-12-01T11:16:42.764Z,-0.19
2022-12-01T11:21:53.977Z,0.04
2022-12-01T11:27:16.436Z,0.08
2022-12-01T11:32:25.638Z,-0.12
2022-12-01T11:38:13.205Z,-0.01
2022-12-01T11:43:25.793Z,-0.48
2022-12-01T11:48:31.399Z,-0.37
2022-12-01T11:53:40.392Z,-0.34
2022-12-01T11:58:44.554Z,-0.41
2022-12-01T12:04:23.518Z,-0.42
2022-12-01T12:09:29.283Z,-0.57
2022-12-01T12:14:57.947Z,-0.55
2022-12-01T12:20:08.195Z,-0.58
2022-12-01T12:25:48.666Z,-0.74
2022-12-01T12:31:28.715Z,-1.17
2022-12-01T12:37:08.582Z,-1.26
2022-12-01T12:42:56.555Z,-1.40
2022-12-01T12:48:29.083Z,-1.51
2022-12-01T12:53:43.905Z,-1.49
2022-12-01T12:59:03.477Z,-1.61
2022-12-01T13:04:14.189Z,-1.59
2022-12-01T13:09:28.148Z,-1.69
2022-12-01T13:14:39.065Z,-1.84
2022-12-01T13:19:50.478Z,-1.86
2022-12-01T13:24:53.102Z,-1.95
2022-12-01T13:29:56.893Z,-1.90
2022-12-01T13:35:00.998Z,-1.89
2022-12-01T13:40:23.084Z,-2.04
2022-12-01T13:45:26.021Z,-2.07
2022-12-01T13:50:44.099Z,-2.18
2022-12-01T13:56:03.390Z,-2.18
2022-12-01T14:01:21.707Z,-2.37
2022-12-01T14:06:28.842Z,-2.51
2022-12-01T14:11:34.497Z,-2.56
2022-12-01T14:17:02.795Z,-2.57
2022-12-01T14:22:26.711Z,-2.57
2022-12-01T14:27:39.028Z,-2.82
2022-12-01T14:32:41.589Z,-2.86
2022-12-01T14:37:47.832Z,-2.88
2022-12-01T14:43:12.541Z,-2.80
2022-12-01T14:48:21.871Z,-2.83
2022-12-01T14:53:36.590Z,-2.86
2022-12-01T14:58:39.241Z,-2.97
2022-12-01T15:03:54.067Z,-3.02
2022-12-01T15:09:33.363Z,-2.96
2022-12-01T15:14:48.688Z,-3.06
2022-12-01T15:19:51.722Z,-3.17
2022-12-01T15:25:13.979Z,-3.23
2022-12-01T15:30:19.112Z,-3.18
2022-12-01T15:35:23.503Z,-3.30
2022-12-01T15:46:02.194Z,-3.28
2022-12-01T15:51:16.568Z,-3.30
2022-12-01T15:56:26.992Z,-3.40
2022-12-01T16:01:31.971Z,-3.52
2022-12-01T16:06:38.458Z,-3.46
2022-12-01T16:11:41.036Z,-3.56
2022-12-01T16:16:51.654Z,-3.82
2022-12-01T16:22:05.449Z,-3.83
2022-12-01T16:27:16.936Z,-3.84
2022-12-01T16:32:25.192Z,-3.96
2022-12-01T16:37:27.932Z,-3.93
2022-12-01T16:42:30.403Z,-3.82
2022-12-01T16:47:33.026Z,-3.86
2022-12-01T16:52:44.037Z,-3.87
2022-12-01T16:57:47.578Z,-3.98
2022-12-01T17:02:50.335Z,-4.20
2022-12-01T17:07:54.159Z,-4.14
2022-12-01T17:12:57.355Z,-4.25
2022-12-01T17:17:59.813Z,-4.32
2022-12-01T17:23:02.408Z,-4.24
2022-12-01T17:28:04.905Z,-4.47
2022-12-01T17:33:07.376Z,-4.52
2022-12-01T17:38:12.815Z,-4.76
2022-12-01T17:43:15.516Z,-4.82
2022-12-01T17:48:18.040Z,-4.97
2022-12-01T17:53:20.705Z,-5.14
2022-12-01T17:58:23.312Z,-5.20
2022-12-01T18:03:25.849Z,-5.31
2022-12-01T18:08:30.226Z,-5.37
2022-12-01T18:13:35.296Z,-5.41
2022-12-01T18:18:38.800Z,-5.36
2022-12-01T18:23:41.275Z,-5.52
2022-12-01T18:28:44.471Z,-5.47
2022-12-01T18:33:46.931Z,-5.44
2022-12-01T18:38:50.646Z,-5.44
2022-12-01T18:43:53.099Z,-5.63
2022-12-01T18:49:07.077Z,-5.53
2022-12-01T18:54:12.873Z,-5.66
2022-12-01T18:59:17.543Z,-5.46
2022-12-01T19:04:20.473Z,-5.68
2022-12-01T19:09:23.267Z,-5.62
2022-12-01T19:14:30.538Z,-5.62
2022-12-01T19:19:37.335Z,-5.67
2022-12-01T19:24:40.461Z,-5.51
2022-12-01T19:29:43.078Z,-5.63
2022-12-01T19:34:45.847Z,-5.60
2022-12-01T19:39:48.324Z,-5.47
2022-12-01T19:44:51.018Z,-5.50
2022-12-01T19:49:53.625Z,-5.59
2022-12-01T19:54:56.317Z,-5.56
2022-12-01T19:59:58.914Z,-5.67
2022-12-01T20:05:01.584Z,-5.69
2022-12-01T20:10:06.643Z,-5.67
2022-12-01T20:15:09.707Z,-5.79
2022-12-01T20:20:13.012Z,-5.69
2022-12-01T20:25:15.529Z,-5.89
2022-12-01T20:30:18.087Z,-5.62
2022-12-01T20:35:20.639Z,-5.74
2022-12-01T20:40:23.306Z,-5.76
2022-12-01T20:45:28.622Z,-5.75
2022-12-01T20:50:31.121Z,-5.75
2022-12-01T20:55:36.573Z,-5.90
2022-12-01T21:00:44.576Z,-5.82
2022-12-01T21:05:47.102Z,-6.05
2022-12-01T21:10:49.565Z,-5.85
2022-12-01T21:16:01.813Z,-6.10
2022-12-01T21:21:22.804Z,-6.00
2022-12-01T21:26:26.259Z,-6.19
2022-12-01T21:31:29.386Z,-6.15
2022-12-01T21:36:31.888Z,-6.12
2022-12-01T21:41:34.563Z,-6.03
2022-12-01T21:46:40.023Z,-6.21
2022-12-01T21:51:42.619Z,-6.05
2022-12-01T21:56:45.687Z,-6.01
2022-12-01T22:01:53.933Z,-6.10
2022-12-01T22:06:57.803Z,-6.17
2022-12-01T22:12:24.816Z,-6.28
2022-12-01T22:17:28.361Z,-6.11
2022-12-01T22:22:33.046Z,-6.13
2022-12-01T22:27:39.661Z,-6.16
2022-12-01T22:32:57.597Z,-6.20
2022-12-01T22:38:09.033Z,-6.39
2022-12-01T22:43:17.556Z,-6.18
2022-12-01T22:48:22.971Z,-6.22
2022-12-01T22:53:31.449Z,-6.26
2022-12-01T22:58:41.229Z,-6.15
2022-12-01T23:03:43.684Z,-6.18
2022-12-01T23:08:46.688Z,-6.39
2022-12-01T23:13:49.182Z,-6.21
2022-12-01T23:18:51.583Z,-6.23
2022-12-01T23:23:54.118Z,-6.34
2022-12-01T23:28:58.847Z,-6.35
2022-12-01T23:34:01.570Z,-6.17
2022-12-01T23:39:11.826Z,-6.36
2022-12-01T23:44:41.207Z,-6.42
2022-12-01T23:49:45.043Z,-6.44
2022-12-01T23:54:48.719Z,-6.42
